createdAt,value
2022-09-23T00:01:22.644Z,58.40
2022-09-23T00:03:49.185Z,72.93
2022-09-23T00:06:15.450Z,75.28
2022-09-23T00:08:41.708Z,91.43
2022-09-23T00:11:07.963Z,92.53
2022-09-23T00:13:34.159Z,88.30
2022-09-23T00:16:00.347Z,78.40
2022-09-23T00:18:26.528Z,55.85
2022-09-23T00:20:52.814Z,79.50
2022-09-23T00:23:19.015Z,62.40
2022-09-23T00:25:45.263Z,83.00
2022-09-23T00:28:11.453Z,98.68
2022-09-23T00:30:37.731Z,87.35
2022-09-23T00:33:03.937Z,53.90
2022-09-23T00:35:30.134Z,50.97
2022-09-23T00:37:56.330Z,51.75
2022-09-23T00:40:22.587Z,57.83
2022-09-23T00:42:48.872Z,56.05
2022-09-23T00:45:15.128Z,58.30
2022-09-23T00:47:41.344Z,55.90
2022-09-23T00:50:08.861Z,50.80
2022-09-23T00:52:35.116Z,51.00
2022-09-23T00:55:01.342Z,56.15
2022-09-23T00:57:27.594Z,62.85
2022-09-23T00:59:53.839Z,69.72
2022-09-23T01:02:21.083Z,73.20
2022-09-23T01:04:47.564Z,61.15
2022-09-23T01:07:13.748Z,48.92
2022-09-23T01:09:39.926Z,49.95
2022-09-23T01:12:06.113Z,49.53
2022-09-23T01:14:32.442Z,49.88
2022-09-23T01:16:58.775Z,53.75
2022-09-23T01:19:25.036Z,59.05
2022-09-23T01:21:51.297Z,69.80
2022-09-23T01:24:17.478Z,74.85
2022-09-23T01:26:43.678Z,72.30
2022-09-23T01:29:09.854Z,53.72
2022-09-23T01:31:36.255Z,39.22
2022-09-23T01:34:02.444Z,37.85
2022-09-23T01:36:28.650Z,41.80
2022-09-23T01:38:55.341Z,42.40
2022-09-23T01:41:21.514Z,45.50
2022-09-23T01:43:47.713Z,48.05
2022-09-23T01:46:13.903Z,49.20
2022-09-23T01:48:40.136Z,49.92
2022-09-23T01:51:06.360Z,46.25
2022-09-23T01:53:32.915Z,50.20
2022-09-23T01:56:00.080Z,45.85
2022-09-23T01:58:26.262Z,41.77
2022-09-23T02:00:52.508Z,51.88
2022-09-23T02:03:18.760Z,66.05
2022-09-23T02:05:44.950Z,70.57
2022-09-23T02:08:11.139Z,71.43
2022-09-23T02:10:37.364Z,61.72
2022-09-23T02:13:05.360Z,49.53
2022-09-23T02:15:31.641Z,48.80
2022-09-23T02:17:58.786Z,47.90
2022-09-23T02:20:24.981Z,47.93
2022-09-23T02:22:51.164Z,45.63
2022-09-23T02:25:17.465Z,48.88
2022-09-23T02:27:43.694Z,55.00
2022-09-23T02:30:09.906Z,48.95
2022-09-23T02:32:36.095Z,44.08
2022-09-23T02:35:02.290Z,45.10
2022-09-23T02:37:28.715Z,55.88
2022-09-23T02:39:54.985Z,63.58
2022-09-23T02:42:21.168Z,54.03
2022-09-23T02:44:47.365Z,43.83
2022-09-23T02:47:13.552Z,49.85
2022-09-23T02:49:39.764Z,58.70
2022-09-23T02:52:07.538Z,51.53
2022-09-23T02:54:33.819Z,45.38
2022-09-23T02:57:00.835Z,42.95
2022-09-23T02:59:27.031Z,42.15
2022-09-23T03:01:54.180Z,46.25
2022-09-23T03:04:20.423Z,48.28
2022-09-23T03:06:46.598Z,47.30
2022-09-23T03:09:12.779Z,49.63
2022-09-23T03:11:38.953Z,45.28
2022-09-23T03:14:06.623Z,42.20
2022-09-23T03:16:32.970Z,39.78
2022-09-23T03:18:59.245Z,41.03
2022-09-23T03:21:25.429Z,42.40
2022-09-23T03:23:51.636Z,47.80
2022-09-23T03:26:17.821Z,53.90
2022-09-23T03:28:44.020Z,54.67
2022-09-23T03:31:10.300Z,51.45
2022-09-23T03:33:36.495Z,52.47
2022-09-23T03:36:21.465Z,49.90
2022-09-23T03:38:47.665Z,45.35
2022-09-23T03:41:16.586Z,44.35
2022-09-23T03:43:42.898Z,48.97
2022-09-23T03:46:09.113Z,44.80
2022-09-23T03:48:35.334Z,48.85
2022-09-23T03:51:01.526Z,49.05
2022-09-23T03:53:27.716Z,45.33
2022-09-23T03:55:53.894Z,51.03
2022-09-23T03:58:20.098Z,42.22
2022-09-23T04:00:46.628Z,45.28
2022-09-23T04:03:12.912Z,49.97
2022-09-23T04:05:39.107Z,45.60
2022-09-23T04:08:05.480Z,48.58
2022-09-23T04:10:31.668Z,51.33
2022-09-23T04:12:57.862Z,48.80
2022-09-23T04:15:24.088Z,54.08
2022-09-23T04:17:50.295Z,51.63
2022-09-23T04:20:17.210Z,51.42
2022-09-23T04:22:43.386Z,52.95
2022-09-23T04:25:09.600Z,49.97
2022-09-23T04:27:37.875Z,47.88
2022-09-23T04:30:05.094Z,45.47
2022-09-23T04:32:31.721Z,49.45
2022-09-23T04:34:57.921Z,54.90
2022-09-23T04:37:24.108Z,49.92
2022-09-23T04:39:50.379Z,51.22
2022-09-23T04:42:16.585Z,53.15
2022-09-23T04:44:42.927Z,56.97
2022-09-23T04:47:09.148Z,49.03
2022-09-23T04:49:35.354Z,42.42
2022-09-23T04:52:02.702Z,40.25
2022-09-23T04:54:29.436Z,43.17
2022-09-23T04:56:55.649Z,43.58
2022-09-23T04:59:21.836Z,40.45
2022-09-23T05:01:48.122Z,41.83
2022-09-23T05:04:14.764Z,41.95
2022-09-23T05:06:43.828Z,44.00
2022-09-23T05:09:10.135Z,42.03
2022-09-23T05:11:36.325Z,67.50
2022-09-23T05:14:02.511Z,82.53
2022-09-23T05:16:29.355Z,54.17
2022-09-23T05:18:55.759Z,62.28
2022-09-23T05:21:21.967Z,64.57
2022-09-23T05:23:48.168Z,57.05
2022-09-23T05:26:14.343Z,56.85
2022-09-23T05:28:40.543Z,74.65
2022-09-23T05:31:06.773Z,84.72
2022-09-23T05:33:33.032Z,62.85
2022-09-23T05:35:59.234Z,61.10
2022-09-23T05:38:25.412Z,67.35
2022-09-23T05:40:51.701Z,102.78
2022-09-23T05:43:17.927Z,103.57
2022-09-23T05:45:44.158Z,83.82
2022-09-23T05:48:10.348Z,53.78
2022-09-23T05:50:36.542Z,60.42
2022-09-23T05:53:02.731Z,50.63
2022-09-23T05:55:28.951Z,57.88
2022-09-23T05:57:55.163Z,49.83
2022-09-23T06:00:21.393Z,62.08
2022-09-23T06:02:48.645Z,77.97
2022-09-23T06:05:16.183Z,61.80
2022-09-23T06:07:42.616Z,64.45
2022-09-23T06:10:08.798Z,60.33
2022-09-23T06:12:35.785Z,63.53
2022-09-23T06:15:01.992Z,69.75
2022-09-23T06:17:28.170Z,63.47
2022-09-23T06:19:54.352Z,58.28
2022-09-23T06:22:20.556Z,55.75
2022-09-23T06:24:46.732Z,58.42
2022-09-23T06:27:13.347Z,65.88
2022-09-23T06:29:39.952Z,76.07
2022-09-23T06:32:06.286Z,79.05
2022-09-23T06:34:42.116Z,83.68
2022-09-23T06:37:19.768Z,74.32
2022-09-23T06:39:46.776Z,63.28
2022-09-23T06:42:13.443Z,70.63
2022-09-23T06:44:39.649Z,64.13
2022-09-23T06:47:05.870Z,57.28
2022-09-23T06:49:32.065Z,69.05
2022-09-23T06:51:58.295Z,63.95
2022-09-23T06:54:26.027Z,55.30
2022-09-23T06:56:52.309Z,56.25
2022-09-23T06:59:18.549Z,56.60
2022-09-23T07:01:45.999Z,56.75
2022-09-23T07:04:12.321Z,58.85
2022-09-23T07:06:38.586Z,55.88
2022-09-23T07:09:04.875Z,56.10
2022-09-23T07:11:31.163Z,64.07
2022-09-23T07:13:57.416Z,74.50
2022-09-23T07:16:23.688Z,59.38
2022-09-23T07:18:49.993Z,64.07
2022-09-23T07:21:16.372Z,63.75
2022-09-23T07:23:42.636Z,73.40
2022-09-23T07:26:08.921Z,79.05
2022-09-23T07:28:36.339Z,78.32
2022-09-23T07:31:03.021Z,73.22
2022-09-23T07:33:33.413Z,85.28
2022-09-23T07:35:59.983Z,74.50
2022-09-23T07:38:30.003Z,92.38
2022-09-23T07:40:56.555Z,88.35
2022-09-23T07:43:22.798Z,78.43
2022-09-23T07:45:49.054Z,95.75
2022-09-23T07:48:15.319Z,89.13
2022-09-23T07:50:41.592Z,93.85
2022-09-23T07:53:08.548Z,72.28
2022-09-23T07:55:35.046Z,83.07
2022-09-23T07:58:01.301Z,74.97
2022-09-23T08:00:27.583Z,86.40
2022-09-23T08:02:54.044Z,85.75
2022-09-23T08:05:20.484Z,79.43
2022-09-23T08:07:48.436Z,79.18
2022-09-23T08:10:19.030Z,60.25
2022-09-23T08:12:46.370Z,70.18
2022-09-23T08:15:12.642Z,62.92
2022-09-23T08:17:38.897Z,67.43
2022-09-23T08:20:05.158Z,69.50
2022-09-23T08:22:31.413Z,58.08
2022-09-23T08:24:58.346Z,60.45
2022-09-23T08:27:24.614Z,55.47
2022-09-23T08:29:50.873Z,59.70
2022-09-23T08:32:17.115Z,60.75
2022-09-23T08:34:43.889Z,52.47
2022-09-23T08:37:10.854Z,64.75
2022-09-23T08:39:37.112Z,79.65
2022-09-23T08:42:03.359Z,57.13
2022-09-23T08:44:29.630Z,82.00
2022-09-23T08:46:55.944Z,43.47
2022-09-23T08:49:22.427Z,60.03
2022-09-23T08:51:48.686Z,43.03
2022-09-23T08:54:14.939Z,80.22
2022-09-23T08:56:42.178Z,75.72
2022-09-23T08:59:08.489Z,66.40
2022-09-23T09:01:34.976Z,99.68
2022-09-23T09:04:01.315Z,54.30
2022-09-23T09:06:27.700Z,91.32
2022-09-23T09:08:53.953Z,60.85
2022-09-23T09:11:20.219Z,56.85
2022-09-23T09:13:48.825Z,56.65
2022-09-23T09:16:15.132Z,61.75
2022-09-23T09:18:43.288Z,66.20
2022-09-23T09:21:09.871Z,65.82
2022-09-23T09:23:36.151Z,155.93
2022-09-23T09:26:02.692Z,64.07
2022-09-23T09:28:31.066Z,62.05
2022-09-23T09:30:57.504Z,205.88
2022-09-23T09:33:23.811Z,223.15
2022-09-23T09:35:50.342Z,64.70
2022-09-23T09:38:16.606Z,83.07
2022-09-23T09:40:43.055Z,61.67
2022-09-23T09:43:09.383Z,109.10
2022-09-23T09:45:36.020Z,56.85
2022-09-23T09:48:03.377Z,62.40
2022-09-23T09:50:32.846Z,50.08
2022-09-23T09:52:59.082Z,88.57
2022-09-23T09:55:25.386Z,48.13
2022-09-23T09:57:52.103Z,138.05
2022-09-23T10:00:18.863Z,95.53
2022-09-23T10:02:45.207Z,93.35
2022-09-23T10:05:11.461Z,115.88
2022-09-23T10:07:37.716Z,82.97
2022-09-23T10:10:28.867Z,145.85
2022-09-23T10:12:50.238Z,286.45
2022-09-23T10:15:16.496Z,89.93
2022-09-23T10:17:42.764Z,79.80
2022-09-23T10:20:09.016Z,91.10
2022-09-23T10:22:35.291Z,147.60
2022-09-23T10:25:03.091Z,171.32
2022-09-23T10:27:31.264Z,168.98
2022-09-23T10:29:57.569Z,92.28
2022-09-23T10:32:25.448Z,95.75
2022-09-23T10:34:51.881Z,94.53
2022-09-23T10:37:18.143Z,108.97
2022-09-23T10:40:02.925Z,141.82
2022-09-23T10:42:47.611Z,126.70
2022-09-23T10:45:32.512Z,127.85
2022-09-23T10:47:58.869Z,75.30
2022-09-23T10:50:25.293Z,100.85
2022-09-23T10:52:51.562Z,122.35
2022-09-23T10:55:17.857Z,166.70
2022-09-23T10:57:44.719Z,121.70
2022-09-23T11:00:11.112Z,135.32
2022-09-23T11:02:37.845Z,224.25
2022-09-23T11:05:04.659Z,154.63
2022-09-23T11:07:37.318Z,93.00
2022-09-23T11:10:03.738Z,92.40
2022-09-23T11:12:31.132Z,96.63
2022-09-23T11:14:57.414Z,222.52
2022-09-23T11:17:24.372Z,199.95
2022-09-23T11:19:50.625Z,167.05
2022-09-23T11:22:16.935Z,127.85
2022-09-23T11:24:47.474Z,117.05
2022-09-23T11:27:14.280Z,120.32
2022-09-23T11:29:42.483Z,228.32
2022-09-23T11:32:08.812Z,390.17
2022-09-23T11:34:35.063Z,349.27
2022-09-23T11:37:02.139Z,212.05
2022-09-23T11:39:28.362Z,267.37
2022-09-23T11:41:54.621Z,240.15
2022-09-23T11:44:20.899Z,165.75
2022-09-23T11:46:47.165Z,202.68
2022-09-23T11:49:15.444Z,209.55
2022-09-23T11:51:41.728Z,154.27
2022-09-23T11:54:09.228Z,143.73
2022-09-23T11:56:36.923Z,132.73
2022-09-23T11:59:04.768Z,184.13
2022-09-23T12:01:37.072Z,160.77
2022-09-23T12:04:14.047Z,131.70
2022-09-23T12:06:44.477Z,173.75
2022-09-23T12:09:10.730Z,117.82
2022-09-23T12:11:36.996Z,203.68
2022-09-23T12:14:03.336Z,236.63
2022-09-23T12:16:29.766Z,281.60
2022-09-23T12:18:56.035Z,251.18
2022-09-23T12:21:48.571Z,198.00
2022-09-23T12:24:09.406Z,215.68
2022-09-23T12:26:35.685Z,188.52
2022-09-23T12:29:01.935Z,170.57
2022-09-23T12:31:31.075Z,175.98
2022-09-23T12:33:57.776Z,144.55
2022-09-23T12:36:24.055Z,108.50
2022-09-23T12:38:50.357Z,162.27
2022-09-23T12:41:18.069Z,145.38
2022-09-23T12:43:46.728Z,153.82
2022-09-23T12:46:16.017Z,132.57
2022-09-23T12:48:42.322Z,115.25
2022-09-23T12:51:08.589Z,113.75
2022-09-23T12:53:34.910Z,95.45
2022-09-23T12:56:01.297Z,103.43
2022-09-23T12:58:27.616Z,98.22
2022-09-23T13:00:54.038Z,114.25
2022-09-23T13:03:39.020Z,112.00
2022-09-23T13:06:23.807Z,100.38
2022-09-23T13:08:50.066Z,103.63
2022-09-23T13:11:16.328Z,97.57
2022-09-23T13:13:42.731Z,109.72
2022-09-23T13:16:09.036Z,136.30
2022-09-23T13:18:35.344Z,137.13
2022-09-23T13:21:01.711Z,117.93
2022-09-23T13:23:28.028Z,100.10
2022-09-23T13:25:54.311Z,98.80
2022-09-23T13:28:20.574Z,96.47
2022-09-23T13:30:46.826Z,84.43
2022-09-23T13:33:13.076Z,84.80
2022-09-23T13:35:39.336Z,80.78
2022-09-23T13:38:05.600Z,84.68
2022-09-23T13:40:31.927Z,81.05
2022-09-23T13:42:58.388Z,80.43
2022-09-23T13:45:24.831Z,83.43
2022-09-23T13:47:51.086Z,96.40
2022-09-23T13:50:17.522Z,90.20
2022-09-23T13:52:43.775Z,95.22
2022-09-23T13:55:10.032Z,116.93
2022-09-23T13:57:36.817Z,109.35
2022-09-23T14:00:03.552Z,85.20
2022-09-23T14:02:30.148Z,93.65
2022-09-23T14:04:56.418Z,86.18
2022-09-23T14:07:22.680Z,101.32
2022-09-23T14:09:48.947Z,112.22
2022-09-23T14:12:15.246Z,115.20
2022-09-23T14:14:41.852Z,112.72
2022-09-23T14:17:08.129Z,130.02
2022-09-23T14:19:34.488Z,130.70
2022-09-23T14:22:00.939Z,118.97
2022-09-23T14:24:27.204Z,117.40
2022-09-23T14:26:53.479Z,99.80
2022-09-23T14:29:19.734Z,93.72
2022-09-23T14:31:56.573Z,88.25
2022-09-23T14:34:23.150Z,92.65
2022-09-23T14:37:08.328Z,82.15
2022-09-23T14:39:34.590Z,98.70
2022-09-23T14:42:00.889Z,107.68
2022-09-23T14:44:27.996Z,97.80
2022-09-23T14:46:56.447Z,87.22
2022-09-23T14:49:22.691Z,90.57
2022-09-23T14:51:48.979Z,95.25
2022-09-23T14:54:15.364Z,78.47
2022-09-23T14:56:41.733Z,84.65
2022-09-23T14:59:08.062Z,87.03
2022-09-23T15:01:34.511Z,91.18
2022-09-23T15:04:01.521Z,91.30
2022-09-23T15:06:27.768Z,84.68
2022-09-23T15:08:54.031Z,89.68
2022-09-23T15:11:20.290Z,99.90
2022-09-23T15:13:46.848Z,102.85
2022-09-23T15:16:13.949Z,108.32
2022-09-23T15:18:41.083Z,121.55
2022-09-23T15:21:07.293Z,146.00
2022-09-23T15:23:34.208Z,123.88
2022-09-23T15:26:00.606Z,122.03
2022-09-23T15:28:27.111Z,139.73
2022-09-23T15:30:53.419Z,125.60
2022-09-23T15:33:21.892Z,156.70
2022-09-23T15:35:48.411Z,115.18
2022-09-23T15:38:14.709Z,95.35
2022-09-23T15:40:41.535Z,117.40
2022-09-23T15:43:07.857Z,127.18
2022-09-23T15:45:34.308Z,208.88
2022-09-23T15:48:00.777Z,216.30
2022-09-23T15:50:27.048Z,202.82
2022-09-23T15:52:53.321Z,220.95
2022-09-23T15:55:22.521Z,171.05
2022-09-23T15:57:48.770Z,156.68
2022-09-23T16:00:15.854Z,113.68
2022-09-23T16:02:42.254Z,163.03
2022-09-23T16:05:08.535Z,181.48
2022-09-23T16:07:36.239Z,246.43
2022-09-23T16:10:02.546Z,266.13
2022-09-23T16:12:30.110Z,229.38
2022-09-23T16:14:56.417Z,232.40
2022-09-23T16:17:23.111Z,192.52
2022-09-23T16:19:49.380Z,123.07
2022-09-23T16:22:15.883Z,131.65
2022-09-23T16:24:42.151Z,134.15
2022-09-23T16:27:09.266Z,118.30
2022-09-23T16:29:35.564Z,99.60
2022-09-23T16:32:02.150Z,84.45
2022-09-23T16:34:28.675Z,69.20
2022-09-23T16:36:55.071Z,71.72
2022-09-23T16:39:22.747Z,59.30
2022-09-23T16:41:49.798Z,56.15
2022-09-23T16:44:16.410Z,62.20
2022-09-23T16:46:42.802Z,89.70
2022-09-23T16:49:11.916Z,169.20
2022-09-23T16:51:38.599Z,223.45
2022-09-23T16:54:06.116Z,144.73
2022-09-23T16:56:32.384Z,62.65
2022-09-23T16:58:58.644Z,66.85
2022-09-23T17:01:43.723Z,70.40
2022-09-23T17:04:10.583Z,122.20
2022-09-23T17:06:36.916Z,185.57
2022-09-23T17:09:03.223Z,204.38
2022-09-23T17:11:33.466Z,153.52
2022-09-23T17:14:00.802Z,109.22
2022-09-23T17:16:27.149Z,88.07
2022-09-23T17:18:55.420Z,109.03
2022-09-23T17:21:21.698Z,198.65
2022-09-23T17:23:47.956Z,100.25
2022-09-23T17:26:15.056Z,63.50
2022-09-23T17:28:41.277Z,77.90
2022-09-23T17:31:08.528Z,138.65
2022-09-23T17:33:37.767Z,147.77
2022-09-23T17:36:04.394Z,121.57
2022-09-23T17:38:33.675Z,93.72
2022-09-23T17:41:01.001Z,93.53
2022-09-23T17:43:27.607Z,103.97
2022-09-23T17:45:54.370Z,106.63
2022-09-23T17:48:21.713Z,103.47
2022-09-23T17:50:48.303Z,117.47
2022-09-23T17:53:16.739Z,129.15
2022-09-23T17:55:43.000Z,145.40
2022-09-23T17:58:09.251Z,154.93
2022-09-23T18:00:35.505Z,148.02
2022-09-23T18:03:01.828Z,145.95
2022-09-23T18:05:28.089Z,149.23
2022-09-23T18:07:54.353Z,142.15
2022-09-23T18:10:20.633Z,132.35
2022-09-23T18:12:46.908Z,127.63
2022-09-23T18:15:16.930Z,112.22
2022-09-23T18:17:45.688Z,115.63
2022-09-23T18:20:11.951Z,112.63
2022-09-23T18:22:38.208Z,118.45
2022-09-23T18:25:22.691Z,110.78
2022-09-23T18:27:50.701Z,108.43
2022-09-23T18:30:17.056Z,110.63
2022-09-23T18:32:43.531Z,105.78
2022-09-23T18:35:09.836Z,103.90
2022-09-23T18:37:36.087Z,93.97
2022-09-23T18:40:03.313Z,84.22
2022-09-23T18:42:29.574Z,81.05
2022-09-23T18:44:56.514Z,77.43
2022-09-23T18:47:41.367Z,74.10
2022-09-23T18:50:26.242Z,70.65
2022-09-23T18:52:53.006Z,64.68
2022-09-23T18:55:19.255Z,56.92
2022-09-23T18:57:47.695Z,55.72
2022-09-23T19:00:13.952Z,51.67
2022-09-23T19:02:40.328Z,49.38
2022-09-23T19:05:06.580Z,50.60
2022-09-23T19:07:32.909Z,49.72
2022-09-23T19:09:59.151Z,49.60
2022-09-23T19:12:25.394Z,53.72
2022-09-23T19:14:51.661Z,57.25
2022-09-23T19:17:17.916Z,46.33
2022-09-23T19:19:45.972Z,46.47
2022-09-23T19:24:39.920Z,47.95
2022-09-23T19:27:06.179Z,78.78
2022-09-23T19:29:33.270Z,53.05
2022-09-23T19:31:59.683Z,47.37
2022-09-23T19:34:29.042Z,58.88
2022-09-23T19:36:57.182Z,85.35
2022-09-23T19:39:23.464Z,79.30
2022-09-23T19:41:49.710Z,69.88
2022-09-23T19:44:16.417Z,67.70
2022-09-23T19:46:44.976Z,63.67
2022-09-23T19:49:11.307Z,58.00
2022-09-23T19:51:38.586Z,46.92
2022-09-23T19:54:04.843Z,45.05
2022-09-23T19:56:31.828Z,49.13
2022-09-23T19:58:58.322Z,50.90
2022-09-23T20:01:24.614Z,53.83
2022-09-23T20:03:50.933Z,52.92
2022-09-23T20:06:17.182Z,46.40
2022-09-23T20:08:43.610Z,43.90
2022-09-23T20:11:11.031Z,51.10
2022-09-23T20:13:37.585Z,45.95
2022-09-23T20:16:08.849Z,47.50
2022-09-23T20:18:35.151Z,51.15
2022-09-23T20:21:01.441Z,45.13
2022-09-23T20:23:27.691Z,47.28
2022-09-23T20:26:12.452Z,47.10
2022-09-23T20:28:38.708Z,47.10
2022-09-23T20:31:05.034Z,43.25
2022-09-23T20:33:31.313Z,46.63
2022-09-23T20:36:00.817Z,43.67
2022-09-23T20:38:27.073Z,41.60
2022-09-23T20:40:53.377Z,43.47
2022-09-23T20:43:20.122Z,42.40
2022-09-23T20:45:46.376Z,43.42
2022-09-23T20:48:12.673Z,50.95
2022-09-23T20:50:40.083Z,47.55
2022-09-23T20:53:07.107Z,46.80
2022-09-23T20:55:33.739Z,49.40
2022-09-23T20:58:01.682Z,52.38
2022-09-23T21:00:27.964Z,56.72
2022-09-23T21:02:54.258Z,72.38
2022-09-23T21:05:20.513Z,69.35
2022-09-23T21:07:46.790Z,49.80
2022-09-23T21:10:13.300Z,50.83
2022-09-23T21:12:39.551Z,54.17
2022-09-23T21:15:05.803Z,50.70
2022-09-23T21:17:33.484Z,58.28
2022-09-23T21:19:59.879Z,66.10
2022-09-23T21:22:26.242Z,73.43
2022-09-23T21:25:26.210Z,69.85
2022-09-23T21:27:39.270Z,75.95
2022-09-23T21:30:05.519Z,69.00
2022-09-23T21:32:31.771Z,68.07
2022-09-23T21:34:58.043Z,64.30
2022-09-23T21:37:26.008Z,57.45
2022-09-23T21:40:11.223Z,57.35
2022-09-23T21:42:37.544Z,56.45
2022-09-23T21:45:05.201Z,54.58
2022-09-23T21:47:32.292Z,51.45
2022-09-23T21:49:58.549Z,53.42
2022-09-23T21:52:24.809Z,54.40
2022-09-23T21:54:51.066Z,52.58
2022-09-23T21:57:17.315Z,54.88
2022-09-23T21:59:43.567Z,53.60
2022-09-23T22:02:09.849Z,50.85
2022-09-23T22:04:36.251Z,58.38
2022-09-23T22:07:02.567Z,53.88
2022-09-23T22:09:28.861Z,52.95
2022-09-23T22:12:12.673Z,61.00
2022-09-23T22:14:39.057Z,58.90
2022-09-23T22:17:05.454Z,64.00
2022-09-23T22:19:35.328Z,61.65
2022-09-23T22:22:01.855Z,50.38
2022-09-23T22:24:28.090Z,67.07
2022-09-23T22:26:54.344Z,88.80
2022-09-23T22:29:39.083Z,103.07
2022-09-23T22:32:23.952Z,87.18
2022-09-23T22:34:51.855Z,51.10
2022-09-23T22:37:18.681Z,48.58
2022-09-23T22:39:44.947Z,50.13
2022-09-23T22:42:13.041Z,49.42
2022-09-23T22:47:05.567Z,47.55
2022-09-23T22:49:32.167Z,49.10
2022-09-23T22:51:58.462Z,53.95
2022-09-23T22:54:24.780Z,64.13
2022-09-23T22:56:51.397Z,62.17
2022-09-23T22:59:17.682Z,58.75
2022-09-23T23:01:43.967Z,59.58
2022-09-23T23:04:10.409Z,59.17
2022-09-23T23:06:36.864Z,56.78
2022-09-23T23:09:03.492Z,57.65
2022-09-23T23:11:30.178Z,54.38
2022-09-23T23:13:56.620Z,51.83
2022-09-23T23:16:25.252Z,53.38
2022-09-23T23:18:51.591Z,50.67
2022-09-23T23:21:18.075Z,48.15
2022-09-23T23:23:44.323Z,49.78
2022-09-23T23:26:10.587Z,48.30
2022-09-23T23:28:36.847Z,50.58
2022-09-23T23:31:03.263Z,54.10
2022-09-23T23:33:29.540Z,54.42
2022-09-23T23:35:55.780Z,55.30
2022-09-23T23:38:22.024Z,46.20
2022-09-23T23:40:50.024Z,62.92
2022-09-23T23:45:43.523Z,69.82
2022-09-23T23:48:09.777Z,58.47
2022-09-23T23:50:36.225Z,50.17
2022-09-23T23:53:05.216Z,51.13
2022-09-23T23:55:31.477Z,54.58
2022-09-23T23:58:03.054Z,48.15
